Latest Weather Observations for Kurnell

IDN60801

Issued at 11:35 am EDT Sunday 23 November 2014 (issued every 30 minutes, with the page automatically refreshed every 10 minutes)

About weather observations | Map of weather stations | Latest weather observations for NSW | Other Formats
Station Details ID: 066043 Name: KURNELL AWS Lat: -34.00 Lon: 151.21 Height: 4.0 m
Data from the previous 72 hours. | See also: Recent months for locations in New South Wales
Date/Time
EDT
Temp
°C
App
Temp
°C
Dew
Point
Rel
Hum
%
Delta-T
°C
Wind Press
QNH
hPa
Press
MSL
hPa
Rain
since 9 am
mm
Dir
 
Spd
km/h
Gust
km/h
Spd
kts
Gust
kts
23/11:30am - - - - - E 22 26 12 14 - - -
23/11:00am - - - - - ENE 24 26 13 14 - - -
23/10:30am - - - - - ENE 20 22 11 12 - - -
23/10:00am - - - - - E 19 19 10 10 - - -
23/09:30am - - - - - N 6 9 3 5 - - -
23/09:00am - - - - - NNW 7 7 4 4 - - -
23/08:30am - - - - - N 9 11 5 6 - - -
23/08:00am - - - - - NW 15 19 8 10 - - -
23/07:30am - - - - - N 13 15 7 8 - - -
23/07:00am - - - - - N 13 17 7 9 - - -
23/06:30am - - - - - NNW 9 13 5 7 - - -
23/06:00am - - - - - NNW 11 15 6 8 - - -
23/05:30am - - - - - N 13 15 7 8 - - -
23/05:00am - - - - - N 13 15 7 8 - - -
23/04:30am - - - - - N 13 15 7 8 - - -
23/04:00am - - - - - NNE 13 15 7 8 - - -
23/03:30am - - - - - N 9 11 5 6 - - -
23/03:00am - - - - - N 11 13 6 7 - - -
23/02:30am - - - - - N 13 15 7 8 - - -
23/02:00am - - - - - N 11 13 6 7 - - -
23/01:30am - - - - - N 11 13 6 7 - - -
23/01:00am - - - - - NNW 9 13 5 7 - - -
23/12:30am - - - - - N 11 15 6 8 - - -
23/12:00am - - - - - N 9 11 5 6 - - -
 
Date/Time
EDT
Temp
°C
App
Temp
°C
Dew
Point
Rel
Hum
%
Delta-T
°C
Wind Press
QNH
hPa
Press
MSL
hPa
Rain
since 9 am
mm
Dir
 
Spd
km/h
Gust
km/h
Spd
kts
Gust
kts
22/11:30pm - - - - - NE 13 17 7 9 - - -
22/11:00pm - - - - - NNE 13 15 7 8 - - -
22/10:30pm - - - - - NNE 15 17 8 9 - - -
22/10:00pm - - - - - NNE 17 19 9 10 - - -
22/09:30pm - - - - - NNE 15 19 8 10 - - -
22/09:00pm - - - - - NNE 19 24 10 13 - - -
22/08:30pm - - - - - NNE 19 24 10 13 - - -
22/08:00pm - - - - - NE 22 26 12 14 - - -
22/07:30pm - - - - - NE 24 30 13 16 - - -
22/07:00pm - - - - - ENE 26 30 14 16 - - -
22/06:30pm - - - - - ENE 24 28 13 15 - - -
22/06:00pm - - - - - E 24 30 13 16 - - -
22/05:30pm - - - - - E 24 28 13 15 - - -
22/05:00pm - - - - - E 24 30 13 16 - - -
22/04:30pm - - - - - E 22 28 12 15 - - -
22/04:00pm - - - - - E 26 32 14 17 - - -
22/03:30pm - - - - - E 22 30 12 16 - - -
22/03:00pm - - - - - E 22 30 12 16 - - -
22/02:30pm - - - - - E 24 32 13 17 - - -
22/02:00pm - - - - - ESE 17 24 9 13 - - -
22/01:30pm - - - - - E 20 28 11 15 - - -
22/01:00pm - - - - - E 20 26 11 14 - - -
22/12:30pm - - - - - E 19 26 10 14 - - -
22/12:00pm - - - - - E 20 26 11 14 - - -
22/11:30am - - - - - ENE 15 19 8 10 - - -
22/11:00am - - - - - ENE 4 11 2 6 - - -
22/10:30am - - - - - ENE 13 19 7 10 - - -
22/10:00am - - - - - SW 19 28 10 15 - - -
22/09:30am - - - - - SW 17 24 9 13 - - -
22/09:00am - - - - - SSE 13 19 7 10 - - -
22/08:30am - - - - - SSE 13 22 7 12 - - -
22/08:00am - - - - - S 17 20 9 11 - - -
22/07:30am - - - - - S 19 22 10 12 - - -
22/07:00am - - - - - S 19 26 10 14 - - -
22/06:30am - - - - - S 15 20 8 11 - - -
22/06:00am - - - - - S 19 24 10 13 - - -
22/05:30am - - - - - S 19 26 10 14 - - -
22/05:00am - - - - - S 17 26 9 14 - - -
22/04:30am - - - - - S 17 24 9 13 - - -
22/04:00am - - - - - S 17 26 9 14 - - -
22/03:30am - - - - - S 17 26 9 14 - - -
22/03:00am - - - - - S 20 32 11 17 - - -
22/02:30am - - - - - S 20 28 11 15 - - -
22/02:00am - - - - - S 26 35 14 19 - - -
22/01:30am - - - - - S 26 37 14 20 - - -
22/01:00am - - - - - S 30 41 16 22 - - -
22/12:30am - - - - - S 32 46 17 25 - - -
22/12:00am - - - - - S 28 46 15 25 - - -
 
Date/Time
EDT
Temp
°C
App
Temp
°C
Dew
Point
Rel
Hum
%
Delta-T
°C
Wind Press
QNH
hPa
Press
MSL
hPa
Rain
since 9 am
mm
Dir
 
Spd
km/h
Gust
km/h
Spd
kts
Gust
kts
21/11:30pm - - - - - S 33 52 18 28 - - -
21/11:28pm - - - - - S 33 52 18 28 - - -
21/11:00pm - - - - - S 35 46 19 25 - - -
21/10:30pm - - - - - S 37 52 20 28 - - -
21/10:00pm - - - - - S 37 52 20 28 - - -
21/09:30pm - - - - - S 39 52 21 28 - - -
21/09:00pm - - - - - S 43 57 23 31 - - -
21/08:30pm - - - - - S 39 52 21 28 - - -
21/08:00pm - - - - - S 43 56 23 30 - - -
21/07:30pm - - - - - S 41 54 22 29 - - -
21/07:00pm - - - - - S 41 50 22 27 - - -
21/06:46pm - - - - - S 35 54 19 29 - - -
21/06:30pm - - - - - S 35 52 19 28 - - -
21/06:00pm - - - - - S 39 54 21 29 - - -
21/05:36pm - - - - - S 32 50 17 27 - - -
21/05:30pm - - - - - SSE 17 22 9 12 - - -
21/05:00pm - - - - - SE 17 20 9 11 - - -
21/04:30pm - - - - - ESE 19 26 10 14 - - -
21/04:00pm - - - - - SE 20 30 11 16 - - -
21/03:30pm - - - - - SSE 22 30 12 16 - - -
21/03:00pm - - - - - SSE 24 32 13 17 - - -
21/02:30pm - - - - - SSE 20 32 11 17 - - -
21/02:00pm - - - - - SE 19 26 10 14 - - -
21/01:30pm - - - - - E 20 28 11 15 - - -
21/01:00pm - - - - - ENE 24 30 13 16 - - -
21/12:30pm - - - - - E 19 30 10 16 - - -
21/12:00pm - - - - - E 15 19 8 10 - - -
21/11:30am - - - - - E 11 17 6 9 - - -
21/11:00am - - - - - E 9 11 5 6 - - -
21/10:30am - - - - - SSE 13 15 7 8 - - -
21/10:00am - - - - - SSE 15 20 8 11 - - -
21/09:30am - - - - - SSE 17 19 9 10 - - -
21/09:00am - - - - - SSE 13 15 7 8 - - -
21/08:30am - - - - - S 20 28 11 15 - - -
21/08:00am - - - - - W 7 9 4 5 - - -
21/07:30am - - - - - WNW 9 13 5 7 - - -
21/07:00am - - - - - N 9 13 5 7 - - -
21/06:30am - - - - - NE 13 17 7 9 - - -
21/06:00am - - - - - NNW 26 43 14 23 - - -
21/05:30am - - - - - WSW 28 33 15 18 - - -
21/05:00am - - - - - WNW 13 22 7 12 - - -
21/04:30am - - - - - N 13 15 7 8 - - -
21/04:00am - - - - - N 6 11 3 6 - - -
21/03:30am - - - - - WNW 11 11 6 6 - - -
21/03:00am - - - - - NNW 11 15 6 8 - - -
21/02:30am - - - - - NNW 11 11 6 6 - - -
21/02:00am - - - - - N 6 7 3 4 - - -
21/01:30am - - - - - NNE 9 11 5 6 - - -
21/01:00am - - - - - NNE 9 11 5 6 - - -
21/12:30am - - - - - NE 15 15 8 8 - - -
21/12:00am - - - - - NE 11 13 6 7 - - -
 
Date/Time
EDT
Temp
°C
App
Temp
°C
Dew
Point
Rel
Hum
%
Delta-T
°C
Wind Press
QNH
hPa
Press
MSL
hPa
Rain
since 9 am
mm
Dir
 
Spd
km/h
Gust
km/h
Spd
kts
Gust
kts
20/11:30pm - - - - - ENE 15 15 8 8 - - -
20/11:00pm - - - - - NE 9 13 5 7 - - -
20/10:30pm - - - - - NE 11 15 6 8 - - -
20/10:00pm - - - - - NNE 15 19 8 10 - - -
20/09:30pm - - - - - NNE 28 35 15 19 - - -
20/09:00pm - - - - - NE 35 43 19 23 - - -
20/08:30pm - - - - - NE 35 43 19 23 - - -
20/08:00pm - - - - - NE 37 43 20 23 - - -
20/07:30pm - - - - - NE 35 41 19 22 - - -
20/07:00pm - - - - - NE 35 43 19 23 - - -
20/06:30pm - - - - - NE 41 50 22 27 - - -
20/06:00pm - - - - - NE 41 52 22 28 - - -
20/05:30pm - - - - - NE 41 52 22 28 - - -
20/05:00pm - - - - - NE 43 50 23 27 - - -
20/04:30pm - - - - - NE 43 54 23 29 - - -
20/04:00pm - - - - - NE 44 54 24 29 - - -
20/03:30pm - - - - - NE 39 50 21 27 - - -
20/03:00pm - - - - - NE 39 46 21 25 - - -
20/02:30pm - - - - - NE 37 41 20 22 - - -
20/02:00pm - - - - - NE 33 39 18 21 - - -
20/01:30pm - - - - - NE 32 35 17 19 - - -
20/01:00pm - - - - - NE 32 37 17 20 - - -
20/12:30pm - - - - - NE 32 35 17 19 - - -
20/12:00pm - - - - - ENE 26 32 14 17 - - -

Other Formats:

Comma delimited format used in spreadsheet applications
http://www.bom.gov.au/fwo/IDN60801/IDN60801.95756.axf

JavaScript Object Notation format (JSON) in row-major order
http://www.bom.gov.au/fwo/IDN60801/IDN60801.95756.json